Time;durP1;ratioP1;P1;durP2;ratioP2;P2;SDS_P1;SDS_P2;PMS_P1;PMS_P2;Temp;Humidity;BMP_temperature;BMP_pressure;BME280_temperature;BME280_humidity;BME280_pressure;Samples;Min_cycle;Max_cycle;Signal;HPM_P1;HPM_P2
2023/07/15 00:02:00;;;;;;;5.97;5.30;;;20.90;99.90;;;;;;5036678;28;20504;-76
2023/07/15 00:04:29;;;;;;;8.63;5.80;;;20.90;99.90;;;;;;5036471;28;20469;-77
2023/07/15 00:06:58;;;;;;;7.20;5.90;;;20.90;99.90;;;;;;5035149;28;21009;-76
2023/07/15 00:09:29;;;;;;;6.77;4.97;;;20.80;99.90;;;;;;5036632;28;20462;-77
2023/07/15 00:11:58;;;;;;;5.80;5.30;;;20.80;99.90;;;;;;5035264;28;20955;-76
2023/07/15 00:14:28;;;;;;;6.43;5.10;;;20.80;99.90;;;;;;5036330;28;20435;-76
2023/07/15 00:16:59;;;;;;;6.90;5.70;;;20.80;99.90;;;;;;5036755;28;20772;-76
2023/07/15 00:19:29;;;;;;;5.70;4.63;;;20.70;99.90;;;;;;5034870;28;20569;-76
2023/07/15 00:21:57;;;;;;;6.00;5.40;;;20.80;99.90;;;;;;5034897;28;20537;-76
2023/07/15 00:24:25;;;;;;;7.43;6.10;;;20.70;99.90;;;;;;5034865;28;20481;-76
2023/07/15 00:26:53;;;;;;;6.40;5.80;;;20.70;99.90;;;;;;5036087;28;21066;-76
2023/07/15 00:29:22;;;;;;;5.50;4.50;;;20.70;99.90;;;;;;5035908;28;20993;-76
2023/07/15 00:31:50;;;;;;;5.20;4.50;;;20.70;99.90;;;;;;5036001;28;20434;-76
2023/07/15 00:34:20;;;;;;;8.33;6.07;;;20.70;99.90;;;;;;5034580;28;20443;-75
2023/07/15 00:36:49;;;;;;;6.57;5.70;;;20.60;99.90;;;;;;5034593;28;20530;-76
2023/07/15 00:39:17;;;;;;;6.33;5.73;;;20.60;99.90;;;;;;5036128;28;20795;-76
2023/07/15 00:41:46;;;;;;;5.43;4.93;;;20.60;99.90;;;;;;5034535;28;20447;-76
2023/07/15 00:44:15;;;;;;;5.97;5.23;;;20.60;99.90;;;;;;5034375;28;20504;-76
2023/07/15 00:47:21;;;;;;;5.70;5.10;;;20.60;99.90;;;;;;5034409;28;20467;-75
2023/07/15 00:49:50;;;;;;;6.50;5.43;;;20.60;99.90;;;;;;5034211;28;20512;-75
2023/07/15 00:52:20;;;;;;;7.43;5.60;;;20.50;99.90;;;;;;5035594;28;20952;-75
2023/07/15 00:54:52;;;;;;;5.33;4.50;;;20.50;99.90;;;;;;5034490;28;20555;-76
2023/07/15 00:57:22;;;;;;;5.87;5.17;;;20.50;99.90;;;;;;5035650;28;20423;-76
2023/07/15 00:59:58;;;;;;;6.77;5.17;;;20.50;99.90;;;;;;5034049;28;20984;-76
2023/07/15 01:02:27;;;;;;;6.30;4.87;;;20.50;99.90;;;;;;5035599;28;20473;-76
2023/07/15 01:04:56;;;;;;;5.63;4.93;;;20.50;99.90;;;;;;5034072;28;20451;-76
2023/07/15 01:07:24;;;;;;;5.27;4.67;;;20.40;99.90;;;;;;5035482;28;21023;-76
2023/07/15 01:09:52;;;;;;;7.73;6.93;;;20.40;99.90;;;;;;5034055;28;20474;-76
2023/07/15 01:12:21;;;;;;;6.00;5.50;;;20.40;99.90;;;;;;5034740;28;20446;-76
2023/07/15 01:14:51;;;;;;;5.50;4.97;;;20.40;99.90;;;;;;5033828;28;20446;-75
2023/07/15 01:17:20;;;;;;;6.60;5.40;;;20.40;99.90;;;;;;5034003;28;20473;-76
2023/07/15 01:19:53;;;;;;;6.27;5.20;;;20.30;99.90;;;;;;5033731;28;20517;-76
2023/07/15 01:22:22;;;;;;;6.07;5.47;;;20.30;99.90;;;;;;5035602;28;20792;-76
2023/07/15 01:24:52;;;;;;;6.87;5.97;;;20.30;99.90;;;;;;5033663;28;20475;-76
2023/07/15 01:27:26;;;;;;;5.90;5.30;;;20.30;99.90;;;;;;5033603;28;20494;-76
2023/07/15 01:29:54;;;;;;;5.30;4.80;;;20.30;99.90;;;;;;5033580;28;20480;-76
2023/07/15 01:32:24;;;;;;;6.97;5.20;;;20.20;99.90;;;;;;5033393;28;20451;-76
2023/07/15 01:34:53;;;;;;;4.83;4.43;;;20.20;99.90;;;;;;5033578;28;20871;-76
2023/07/15 01:37:21;;;;;;;5.60;5.10;;;20.20;99.90;;;;;;5033559;28;20497;-76
2023/07/15 01:39:49;;;;;;;7.00;6.03;;;20.10;99.90;;;;;;5034714;28;20542;-75
2023/07/15 01:42:19;;;;;;;6.30;5.70;;;20.10;99.90;;;;;;5033463;28;20513;-76
2023/07/15 01:44:47;;;;;;;4.90;4.43;;;20.20;99.90;;;;;;5035118;28;20450;-76
2023/07/15 01:47:15;;;;;;;6.30;5.10;;;20.20;99.90;;;;;;5033227;28;20505;-76
2023/07/15 01:49:44;;;;;;;6.67;5.10;;;20.10;99.90;;;;;;5033443;28;20467;-76
2023/07/15 01:52:13;;;;;;;6.03;5.30;;;20.10;99.90;;;;;;5033211;28;20475;-76
2023/07/15 01:54:42;;;;;;;5.40;4.90;;;20.00;99.90;;;;;;5034702;28;20450;-76
2023/07/15 01:57:10;;;;;;;5.30;4.80;;;20.00;99.90;;;;;;5034650;28;20530;-75
2023/07/15 01:59:40;;;;;;;5.90;5.27;;;20.00;99.90;;;;;;5033007;28;20463;-75
2023/07/15 02:02:08;;;;;;;6.20;4.93;;;20.00;99.90;;;;;;5034162;28;20446;-75
2023/07/15 02:04:36;;;;;;;6.30;5.07;;;20.00;99.90;;;;;;5033098;28;20451;-76
2023/07/15 02:07:05;;;;;;;5.90;5.30;;;20.00;99.90;;;;;;5032941;28;20506;-76
2023/07/15 02:09:34;;;;;;;5.70;5.20;;;19.90;99.90;;;;;;5034485;28;20454;-75
2023/07/15 02:12:03;;;;;;;5.60;4.90;;;19.90;99.90;;;;;;5033069;28;20963;-76
2023/07/15 02:14:31;;;;;;;5.77;4.50;;;19.80;99.90;;;;;;5032818;28;20866;-76
2023/07/15 02:17:01;;;;;;;5.30;4.80;;;19.80;99.90;;;;;;5032785;28;20435;-75
2023/07/15 02:19:30;;;;;;;5.13;4.63;;;19.80;99.90;;;;;;5033107;28;20497;-75
2023/07/15 02:21:59;;;;;;;7.80;4.90;;;19.80;99.90;;;;;;5034481;28;20442;-75
2023/07/15 02:24:27;;;;;;;5.60;4.80;;;19.80;99.90;;;;;;5032776;28;20447;-75
2023/07/15 02:26:55;;;;;;;8.87;7.97;;;19.80;99.90;;;;;;5032875;28;20525;-75
2023/07/15 02:29:23;;;;;;;7.63;6.47;;;19.70;99.90;;;;;;5032464;28;20971;-75
2023/07/15 02:31:51;;;;;;;5.90;5.30;;;19.70;99.90;;;;;;5032781;28;20542;-75
2023/07/15 02:34:21;;;;;;;5.00;4.50;;;19.70;99.90;;;;;;5033796;28;20467;-75
2023/07/15 02:36:49;;;;;;;7.23;5.37;;;19.70;99.90;;;;;;5032509;28;20443;-75
2023/07/15 02:39:17;;;;;;;5.70;5.10;;;19.70;99.90;;;;;;5032460;28;20497;-75
2023/07/15 02:41:46;;;;;;;8.83;5.50;;;19.60;99.90;;;;;;5033827;28;20863;-75
2023/07/15 02:44:15;;;;;;;5.00;4.60;;;19.60;99.90;;;;;;5031779;28;20475;-75
2023/07/15 02:46:45;;;;;;;5.63;4.90;;;19.60;99.90;;;;;;5032348;28;20843;-75
2023/07/15 02:49:13;;;;;;;5.20;4.70;;;19.60;99.90;;;;;;5033650;28;20529;-75
2023/07/15 02:51:43;;;;;;;5.00;4.40;;;19.60;99.90;;;;;;5032176;28;20819;-75
2023/07/15 02:54:11;;;;;;;5.80;4.73;;;19.50;99.90;;;;;;5032279;28;20455;-75
2023/07/15 02:56:39;;;;;;;5.50;5.00;;;19.50;99.90;;;;;;5033546;28;20521;-75
2023/07/15 02:59:07;;;;;;;5.47;4.97;;;19.50;99.90;;;;;;5032107;28;20990;-74
2023/07/15 03:01:35;;;;;;;5.70;5.20;;;19.40;99.90;;;;;;5032192;28;20865;-75
2023/07/15 03:04:06;;;;;;;6.77;5.23;;;19.40;99.90;;;;;;5032344;28;20443;-75
2023/07/15 03:06:34;;;;;;;6.13;4.93;;;19.40;99.90;;;;;;5032054;28;20501;-75
2023/07/15 03:09:04;;;;;;;5.30;4.80;;;19.40;99.90;;;;;;5031995;28;20454;-75
2023/07/15 03:11:33;;;;;;;7.23;4.90;;;19.40;99.90;;;;;;5033359;28;20600;-75
2023/07/15 03:14:01;;;;;;;5.73;5.23;;;19.40;99.90;;;;;;5032369;28;20457;-75
2023/07/15 03:16:29;;;;;;;5.63;5.00;;;19.40;99.90;;;;;;5032017;28;20848;-75
2023/07/15 03:18:57;;;;;;;5.37;4.87;;;19.30;99.90;;;;;;5032707;28;20465;-75
2023/07/15 03:21:25;;;;;;;5.40;4.90;;;19.30;99.90;;;;;;5031999;28;20555;-75
2023/07/15 03:23:54;;;;;;;8.47;5.00;;;19.30;99.90;;;;;;5033274;28;20463;-75
2023/07/15 03:26:23;;;;;;;6.40;5.30;;;19.30;99.90;;;;;;5033430;28;20450;-75
2023/07/15 03:28:51;;;;;;;5.70;5.20;;;19.30;99.90;;;;;;5034339;28;20479;-75
2023/07/15 03:31:19;;;;;;;7.40;5.60;;;19.30;99.90;;;;;;5034430;28;20454;-75
2023/07/15 03:33:51;;;;;;;6.00;4.70;;;19.30;99.90;;;;;;5035289;28;20442;-75
2023/07/15 03:36:19;;;;;;;5.73;4.73;;;19.20;99.90;;;;;;5035440;28;20427;-75
2023/07/15 03:38:47;;;;;;;5.20;4.70;;;19.20;99.90;;;;;;5034208;28;20533;-75
2023/07/15 03:41:15;;;;;;;6.00;4.43;;;19.20;99.90;;;;;;5034215;28;20451;-75
2023/07/15 03:43:45;;;;;;;6.90;4.80;;;19.20;99.90;;;;;;5031887;28;20475;-75
2023/07/15 03:46:13;;;;;;;5.67;5.17;;;19.20;99.90;;;;;;5033554;28;20470;-75
2023/07/15 03:48:42;;;;;;;5.43;4.93;;;19.20;99.90;;;;;;5033122;28;20469;-75
2023/07/15 03:51:10;;;;;;;4.80;4.40;;;19.20;99.90;;;;;;5031926;28;20501;-75
2023/07/15 03:53:38;;;;;;;6.40;5.03;;;19.10;99.90;;;;;;5032865;28;20879;-75
2023/07/15 03:56:06;;;;;;;4.70;4.20;;;19.20;99.90;;;;;;5035041;28;20449;-75
2023/07/15 03:58:39;;;;;;;6.20;5.60;;;19.10;99.90;;;;;;5036065;28;20518;-76
2023/07/15 04:01:08;;;;;;;6.70;4.90;;;19.10;99.90;;;;;;5036743;28;20513;-75
2023/07/15 04:03:36;;;;;;;5.43;4.50;;;19.10;99.90;;;;;;5036832;28;20944;-75
2023/07/15 04:06:04;;;;;;;5.47;5.00;;;19.10;99.90;;;;;;5036632;28;20434;-75
2023/07/15 04:08:34;;;;;;;4.73;4.30;;;19.10;99.90;;;;;;5035124;28;20495;-75
2023/07/15 04:11:03;;;;;;;5.90;4.67;;;19.10;99.90;;;;;;5035422;28;20486;-75
2023/07/15 04:13:31;;;;;;;4.97;4.47;;;19.10;99.90;;;;;;5036652;28;20450;-75
2023/07/15 04:15:59;;;;;;;4.67;4.27;;;19.00;99.90;;;;;;5035197;28;20437;-75
2023/07/15 04:18:28;;;;;;;6.50;5.07;;;19.00;99.90;;;;;;5035000;28;20863;-75
2023/07/15 04:20:59;;;;;;;5.60;5.10;;;19.10;99.90;;;;;;5035012;28;20467;-75
2023/07/15 04:23:27;;;;;;;4.80;4.40;;;19.00;99.90;;;;;;5036298;28;20467;-75
2023/07/15 04:25:55;;;;;;;5.43;4.93;;;19.00;99.90;;;;;;5036526;28;20439;-75
2023/07/15 04:28:23;;;;;;;4.87;4.40;;;19.10;99.90;;;;;;5036016;28;20470;-75
2023/07/15 04:30:51;;;;;;;5.70;4.50;;;19.10;99.90;;;;;;5034729;28;20465;-75
2023/07/15 04:33:20;;;;;;;8.40;7.47;;;19.10;99.90;;;;;;5034871;28;20486;-75
2023/07/15 04:35:50;;;;;;;7.40;6.40;;;19.10;99.90;;;;;;5034744;28;20454;-75
2023/07/15 04:38:21;;;;;;;6.30;5.80;;;19.10;99.90;;;;;;5035955;28;20439;-75
2023/07/15 04:40:49;;;;;;;5.23;4.70;;;19.10;99.90;;;;;;5034492;28;20525;-75
2023/07/15 04:43:18;;;;;;;4.77;4.37;;;19.10;99.90;;;;;;5035804;28;20443;-75
2023/07/15 04:45:47;;;;;;;6.40;4.60;;;19.20;99.90;;;;;;5035789;28;20467;-75
2023/07/15 04:48:16;;;;;;;5.00;4.50;;;19.20;99.90;;;;;;5035789;28;20470;-75
2023/07/15 04:50:44;;;;;;;4.67;4.27;;;19.20;99.90;;;;;;5034431;28;20546;-75
2023/07/15 04:53:14;;;;;;;5.63;4.37;;;19.20;99.90;;;;;;5035639;28;20446;-75
2023/07/15 04:55:42;;;;;;;4.47;4.00;;;19.20;99.90;;;;;;5034377;28;20447;-75
2023/07/15 04:58:11;;;;;;;4.83;4.43;;;19.20;99.90;;;;;;5035900;28;20448;-75
2023/07/15 05:00:39;;;;;;;4.17;3.77;;;19.20;99.90;;;;;;5035492;28;20553;-75
2023/07/15 05:03:07;;;;;;;4.90;4.50;;;19.20;99.90;;;;;;5035550;28;20857;-75
2023/07/15 05:05:36;;;;;;;5.73;3.93;;;19.30;99.90;;;;;;5035878;28;20435;-75
2023/07/15 05:08:12;;;;;;;6.23;4.57;;;19.30;99.90;;;;;;5033744;28;20887;-75
2023/07/15 05:10:41;;;;;;;5.47;4.13;;;19.30;99.90;;;;;;5035114;28;20539;-75
2023/07/15 05:13:12;;;;;;;5.03;3.97;;;19.40;99.90;;;;;;5035739;28;20430;-75
2023/07/15 05:15:41;;;;;;;5.60;4.47;;;19.40;99.90;;;;;;5035389;28;20427;-75
2023/07/15 05:18:09;;;;;;;4.90;4.30;;;19.40;99.90;;;;;;5035508;28;20800;-75
2023/07/15 05:20:38;;;;;;;4.63;4.20;;;19.50;99.90;;;;;;5035334;28;20455;-75
2023/07/15 05:23:06;;;;;;;5.33;4.80;;;19.50;99.90;;;;;;5033817;28;20478;-75
2023/07/15 05:25:35;;;;;;;4.47;4.07;;;19.60;99.90;;;;;;5033794;28;20449;-75
2023/07/15 05:28:05;;;;;;;4.70;4.30;;;19.60;99.90;;;;;;5033783;28;20548;-75
2023/07/15 05:30:36;;;;;;;5.40;4.90;;;19.60;99.90;;;;;;5035002;28;20505;-75
2023/07/15 05:33:04;;;;;;;4.53;3.90;;;19.70;99.90;;;;;;5035197;28;20450;-75
2023/07/15 05:35:33;;;;;;;4.40;3.70;;;19.70;99.90;;;;;;5034933;28;20439;-75
2023/07/15 05:38:01;;;;;;;4.97;4.47;;;19.70;99.90;;;;;;5033715;28;20446;-75
2023/07/15 05:40:29;;;;;;;8.00;5.10;;;19.80;99.90;;;;;;5034827;28;20888;-75
2023/07/15 05:42:57;;;;;;;4.40;4.00;;;19.80;99.90;;;;;;5034907;28;20439;-75
2023/07/15 05:45:26;;;;;;;4.13;3.60;;;19.90;99.90;;;;;;5035057;28;20446;-75
2023/07/15 05:47:55;;;;;;;4.20;3.80;;;20.00;99.90;;;;;;5034759;28;20466;-75
2023/07/15 05:50:23;;;;;;;3.83;3.53;;;20.10;99.90;;;;;;5034636;28;20455;-74
2023/07/15 05:52:52;;;;;;;4.33;3.83;;;20.30;99.90;;;;;;5034711;28;20467;-75
2023/07/15 05:55:21;;;;;;;4.23;3.50;;;20.50;99.90;;;;;;5034600;28;20445;-75
2023/07/15 05:57:49;;;;;;;4.30;3.73;;;20.70;99.90;;;;;;5034630;28;20438;-75
2023/07/15 06:00:17;;;;;;;3.87;3.57;;;20.90;99.90;;;;;;5033028;28;20654;-75
2023/07/15 06:02:47;;;;;;;3.43;3.13;;;21.10;99.90;;;;;;5034239;28;20872;-75
2023/07/15 06:05:15;;;;;;;3.97;3.30;;;21.30;99.90;;;;;;5034643;28;20493;-74
2023/07/15 06:07:43;;;;;;;4.33;3.40;;;21.50;99.90;;;;;;5034327;28;20466;-75
2023/07/15 06:10:11;;;;;;;5.60;3.87;;;21.70;99.90;;;;;;5034276;28;20505;-75
2023/07/15 06:12:39;;;;;;;4.10;3.50;;;22.00;99.90;;;;;;5034111;28;21011;-75
2023/07/15 06:15:08;;;;;;;4.30;3.50;;;22.20;99.90;;;;;;5034144;28;20458;-75
2023/07/15 06:17:36;;;;;;;3.63;3.33;;;22.40;99.90;;;;;;5032676;28;20455;-75
2023/07/15 06:20:07;;;;;;;3.67;3.37;;;22.60;99.90;;;;;;5032933;28;20524;-74
2023/07/15 06:22:35;;;;;;;5.57;3.50;;;22.90;99.90;;;;;;5034089;28;20477;-75
2023/07/15 06:25:04;;;;;;;3.60;3.30;;;23.10;99.90;;;;;;5033809;28;20431;-75
2023/07/15 06:27:32;;;;;;;3.83;3.43;;;23.30;99.90;;;;;;5034261;28;20533;-74
2023/07/15 06:30:00;;;;;;;4.70;3.67;;;23.50;99.90;;;;;;5033719;28;20907;-75
2023/07/15 06:32:28;;;;;;;3.30;3.00;;;23.70;99.90;;;;;;5033829;28;20435;-75
2023/07/15 06:34:57;;;;;;;3.60;3.30;;;23.90;99.90;;;;;;5033811;28;20443;-74
2023/07/15 06:37:26;;;;;;;4.70;3.30;;;24.00;99.90;;;;;;5033803;28;20435;-75
2023/07/15 06:39:54;;;;;;;3.47;3.17;;;24.20;99.90;;;;;;5033673;28;20546;-75
2023/07/15 06:42:22;;;;;;;4.53;3.50;;;24.40;99.90;;;;;;5033927;28;20431;-73
2023/07/15 06:44:50;;;;;;;3.37;3.07;;;24.50;99.90;;;;;;5033756;28;20477;-74
2023/07/15 06:47:18;;;;;;;5.47;3.37;;;24.70;99.90;;;;;;5033830;28;20527;-74
2023/07/15 06:49:47;;;;;;;4.60;3.73;;;24.80;99.90;;;;;;5033514;28;20880;-74
2023/07/15 06:52:15;;;;;;;4.93;3.33;;;24.90;99.90;;;;;;5033831;28;20461;-74
2023/07/15 06:54:44;;;;;;;3.50;2.87;;;25.00;99.90;;;;;;5033869;28;20477;-74
2023/07/15 06:57:12;;;;;;;3.93;3.50;;;25.20;99.90;;;;;;5033499;28;20509;-74
2023/07/15 06:59:41;;;;;;;4.33;2.87;;;25.20;99.90;;;;;;5032365;28;20890;-75
2023/07/15 07:02:09;;;;;;;4.30;3.40;;;25.40;99.90;;;;;;5034183;28;20469;-74
2023/07/15 07:04:37;;;;;;;4.03;3.50;;;25.50;99.90;;;;;;5033802;28;20454;-73
2023/07/15 07:07:05;;;;;;;4.40;3.80;;;25.60;99.90;;;;;;5033826;28;20986;-74
2023/07/15 07:09:33;;;;;;;4.97;3.40;;;25.60;99.90;;;;;;5033451;28;20482;-74
2023/07/15 07:12:03;;;;;;;4.57;3.10;;;25.80;99.90;;;;;;5034276;28;20454;-74
2023/07/15 07:14:31;;;;;;;3.60;3.20;;;25.90;99.90;;;;;;5033395;28;20444;-73
2023/07/15 07:17:02;;;;;;;3.37;3.07;;;26.00;99.90;;;;;;5033412;28;20510;-74
2023/07/15 07:19:30;;;;;;;5.50;3.20;;;26.10;99.90;;;;;;5033655;28;20497;-76
2023/07/15 07:21:58;;;;;;;5.63;3.10;;;26.20;99.90;;;;;;5032392;28;20448;-74
2023/07/15 07:24:26;;;;;;;3.77;3.47;;;26.30;99.90;;;;;;5033774;28;20510;-73
2023/07/15 07:26:54;;;;;;;4.57;3.20;;;26.40;99.90;;;;;;5033787;28;20526;-75
2023/07/15 07:29:24;;;;;;;3.93;3.53;;;26.50;99.90;;;;;;5033463;28;20485;-77
2023/07/15 07:31:53;;;;;;;6.13;3.20;;;26.60;99.90;;;;;;5037937;28;20947;-77
2023/07/15 07:34:21;;;;;;;4.93;3.10;;;26.70;99.90;;;;;;5038542;28;20810;-73
2023/07/15 07:36:49;;;;;;;4.00;3.40;;;26.70;99.90;;;;;;5037609;28;20469;-74
2023/07/15 07:39:17;;;;;;;3.43;3.00;;;26.80;99.90;;;;;;5036698;28;20512;-75
2023/07/15 07:41:45;;;;;;;3.37;3.03;;;26.90;99.90;;;;;;5036394;28;20453;-75
2023/07/15 07:44:14;;;;;;;3.70;3.40;;;27.00;99.90;;;;;;5037208;28;20792;-74
2023/07/15 07:46:43;;;;;;;3.30;2.90;;;27.00;99.80;;;;;;5037333;28;20477;-74
2023/07/15 07:49:11;;;;;;;3.83;3.10;;;27.10;99.90;;;;;;5035803;28;20510;-75
2023/07/15 07:51:40;;;;;;;3.50;2.93;;;27.20;99.80;;;;;;5037242;28;20478;-74
2023/07/15 07:54:08;;;;;;;3.53;3.23;;;27.30;99.40;;;;;;5035686;28;20824;-76
2023/07/15 07:56:36;;;;;;;4.47;3.13;;;27.40;99.40;;;;;;5037131;28;20438;-76
2023/07/15 07:59:04;;;;;;;3.30;2.87;;;27.40;99.50;;;;;;5036871;28;20470;-77
2023/07/15 08:01:33;;;;;;;3.87;3.30;;;27.40;99.10;;;;;;5038707;28;20439;-78
2023/07/15 08:04:03;;;;;;;3.93;3.13;;;27.40;98.70;;;;;;5038003;28;20437;-77
2023/07/15 08:06:31;;;;;;;4.03;3.17;;;27.50;98.40;;;;;;5035958;28;20862;-78
2023/07/15 08:08:59;;;;;;;5.60;3.03;;;27.50;98.60;;;;;;5037875;28;20434;-77
2023/07/15 08:11:27;;;;;;;6.20;3.23;;;27.60;98.30;;;;;;5036661;28;20461;-77
2023/07/15 08:13:56;;;;;;;3.10;2.80;;;27.60;98.20;;;;;;5036889;28;20430;-76
2023/07/15 08:16:31;;;;;;;4.83;2.80;;;27.60;98.00;;;;;;5037211;28;20970;-76
2023/07/15 08:19:00;;;;;;;3.23;2.50;;;27.70;97.40;;;;;;5037413;28;20442;-76
2023/07/15 08:21:31;;;;;;;4.20;3.13;;;27.70;97.30;;;;;;5036792;28;20454;-76
2023/07/15 08:24:00;;;;;;;3.40;3.10;;;27.70;97.20;;;;;;5037044;28;20767;-75
2023/07/15 08:26:28;;;;;;;4.80;3.20;;;27.70;97.00;;;;;;5036690;28;20435;-75
2023/07/15 08:28:58;;;;;;;3.63;3.30;;;27.80;97.00;;;;;;5035166;28;20534;-75
2023/07/15 08:31:26;;;;;;;4.43;3.30;;;27.80;96.80;;;;;;5037713;28;20767;-74
2023/07/15 08:33:54;;;;;;;4.43;3.00;;;27.90;96.70;;;;;;5036279;28;20455;-74
2023/07/15 08:36:23;;;;;;;5.47;3.17;;;27.90;96.40;;;;;;5036338;28;20431;-74
2023/07/15 08:38:52;;;;;;;4.00;3.10;;;27.90;96.30;;;;;;5036422;28;20435;-74
2023/07/15 08:41:24;;;;;;;5.80;2.90;;;27.90;96.20;;;;;;5036109;28;20434;-74
2023/07/15 08:43:52;;;;;;;3.70;3.40;;;28.00;96.10;;;;;;5036207;28;20420;-74
2023/07/15 08:46:27;;;;;;;3.53;3.07;;;28.00;96.10;;;;;;5036298;28;20438;-74
2023/07/15 08:48:56;;;;;;;4.10;3.20;;;28.10;96.00;;;;;;5036121;28;20439;-74
2023/07/15 08:51:30;;;;;;;3.10;2.80;;;28.10;96.00;;;;;;5035930;28;20466;-74
2023/07/15 08:54:02;;;;;;;6.23;3.00;;;28.10;95.90;;;;;;5035949;28;20827;-74
2023/07/15 08:56:32;;;;;;;3.17;2.87;;;28.20;95.90;;;;;;5035799;28;20431;-74
2023/07/15 08:59:00;;;;;;;3.37;3.07;;;28.20;96.00;;;;;;5035965;28;20466;-74
2023/07/15 09:01:28;;;;;;;4.20;3.20;;;28.20;96.10;;;;;;5035571;28;20437;-74
2023/07/15 09:03:56;;;;;;;5.40;2.90;;;28.20;96.20;;;;;;5035723;28;20465;-75
2023/07/15 09:06:25;;;;;;;3.20;2.90;;;28.30;96.00;;;;;;5035709;28;20458;-74
2023/07/15 09:08:53;;;;;;;3.67;2.97;;;28.30;95.90;;;;;;5035527;28;20469;-74
2023/07/15 09:11:22;;;;;;;4.00;3.17;;;28.40;95.80;;;;;;5035391;28;20502;-75
2023/07/15 09:13:51;;;;;;;5.10;2.70;;;28.50;95.80;;;;;;5036006;28;20799;-73
2023/07/15 09:16:19;;;;;;;5.30;3.07;;;28.50;95.80;;;;;;5035311;28;21002;-74
2023/07/15 09:18:47;;;;;;;3.50;2.97;;;28.50;95.60;;;;;;5036010;28;20439;-74
2023/07/15 09:21:16;;;;;;;4.47;2.90;;;28.60;95.70;;;;;;5035241;28;20435;-74
2023/07/15 09:23:46;;;;;;;6.53;3.00;;;28.60;95.20;;;;;;5035875;28;20434;-75
2023/07/15 09:26:14;;;;;;;4.73;2.90;;;28.70;95.20;;;;;;5035861;28;20461;-73
2023/07/15 09:28:48;;;;;;;3.80;3.03;;;28.70;95.10;;;;;;5036086;28;20521;-75
2023/07/15 09:31:23;;;;;;;4.73;3.20;;;28.80;95.50;;;;;;5034873;28;20467;-75
2023/07/15 09:33:52;;;;;;;6.13;5.33;;;28.80;95.80;;;;;;5034597;28;20825;-75
2023/07/15 09:36:30;;;;;;;3.40;2.83;;;28.90;95.50;;;;;;5036111;28;20435;-75
2023/07/15 09:39:03;;;;;;;3.83;3.07;;;28.90;95.60;;;;;;5036063;28;20423;-75
2023/07/15 09:41:32;;;;;;;3.47;2.70;;;29.00;95.80;;;;;;5035931;28;20518;-75
2023/07/15 09:44:01;;;;;;;4.13;2.70;;;29.10;95.80;;;;;;5035735;28;20509;-75
2023/07/15 09:46:31;;;;;;;3.80;2.73;;;29.10;95.70;;;;;;5035819;28;20526;-75
2023/07/15 09:48:59;;;;;;;4.60;3.23;;;29.20;96.00;;;;;;5035638;28;20442;-74
2023/07/15 09:51:28;;;;;;;3.10;2.80;;;29.20;96.00;;;;;;5034465;28;20466;-75
2023/07/15 09:53:58;;;;;;;5.00;2.80;;;29.30;96.00;;;;;;5035287;28;20454;-74
2023/07/15 09:56:35;;;;;;;4.13;3.10;;;29.40;96.10;;;;;;5036137;28;20791;-74
2023/07/15 09:59:12;;;;;;;3.13;2.40;;;29.40;95.90;;;;;;5033853;28;20477;-75
2023/07/15 10:01:45;;;;;;;4.00;2.70;;;29.50;95.90;;;;;;5036058;28;20458;-75
2023/07/15 10:04:23;;;;;;;3.77;3.23;;;29.50;95.80;;;;;;5038821;28;20426;-76
2023/07/15 10:06:52;;;;;;;3.80;2.73;;;29.50;95.30;;;;;;5036616;28;20423;-75
2023/07/15 10:09:20;;;;;;;3.53;2.93;;;29.50;95.40;;;;;;5036307;28;20475;-75
2023/07/15 10:11:51;;;;;;;4.23;2.90;;;29.50;95.40;;;;;;5035647;28;20473;-75
2023/07/15 10:14:22;;;;;;;3.60;2.80;;;29.60;95.30;;;;;;5035631;28;20478;-77
2023/07/15 10:17:09;;;;;;;5.97;2.90;;;29.60;95.30;;;;;;5035577;28;20904;-76
2023/07/15 10:19:42;;;;;;;4.30;3.20;;;29.60;95.10;;;;;;5035512;28;20454;-75
2023/07/15 10:22:11;;;;;;;3.30;3.00;;;29.60;95.30;;;;;;5034129;28;20446;-75
2023/07/15 10:24:42;;;;;;;6.90;2.97;;;29.70;95.50;;;;;;5033662;28;20451;-75
2023/07/15 10:27:11;;;;;;;3.87;2.63;;;29.80;95.10;;;;;;5035547;28;20772;-75
2023/07/15 10:29:41;;;;;;;3.80;2.57;;;29.90;95.00;;;;;;5035493;28;20479;-75
2023/07/15 10:32:11;;;;;;;3.20;2.33;;;29.90;94.80;;;;;;5034958;28;20521;-75
2023/07/15 10:34:42;;;;;;;5.33;2.97;;;30.00;95.20;;;;;;5034934;28;20852;-76
2023/07/15 10:37:14;;;;;;;4.93;2.40;;;30.00;94.70;;;;;;5034742;28;20440;-75
2023/07/15 10:39:43;;;;;;;3.77;2.87;;;29.90;94.60;;;;;;5035005;28;20997;-75
2023/07/15 10:42:13;;;;;;;3.50;2.70;;;30.00;94.90;;;;;;5035532;28;20465;-75
2023/07/15 10:44:45;;;;;;;3.40;2.93;;;30.00;94.80;;;;;;5033280;28;20455;-76
2023/07/15 10:47:15;;;;;;;4.57;2.83;;;30.00;94.50;;;;;;5035384;28;20423;-76
2023/07/15 10:49:44;;;;;;;4.17;2.43;;;30.00;94.40;;;;;;5034653;28;20545;-76
2023/07/15 10:52:18;;;;;;;2.60;2.40;;;30.00;94.60;;;;;;5034733;28;20967;-75
2023/07/15 10:54:47;;;;;;;3.10;2.50;;;30.00;94.40;;;;;;5033850;28;20449;-76
2023/07/15 10:57:16;;;;;;;2.93;2.63;;;30.00;94.30;;;;;;5033477;28;20434;-75
2023/07/15 10:59:47;;;;;;;4.13;2.60;;;30.00;94.50;;;;;;5032058;28;20467;-76
2023/07/15 11:02:15;;;;;;;3.50;2.97;;;30.00;94.50;;;;;;5032138;28;20435;-75
2023/07/15 11:04:46;;;;;;;4.20;3.10;;;30.00;94.40;;;;;;5032899;28;20435;-76
2023/07/15 11:07:15;;;;;;;3.67;2.77;;;30.00;94.30;;;;;;5033503;28;20426;-76
2023/07/15 11:09:44;;;;;;;3.17;2.73;;;29.90;94.30;;;;;;5033142;28;20461;-76
2023/07/15 11:12:12;;;;;;;2.87;2.30;;;29.80;94.30;;;;;;5033637;28;20455;-77
2023/07/15 11:14:43;;;;;;;4.87;2.33;;;29.70;94.20;;;;;;5032069;28;20477;-76
2023/07/15 11:17:14;;;;;;;2.93;2.40;;;29.70;94.50;;;;;;5033789;28;20792;-76
2023/07/15 11:19:46;;;;;;;2.23;2.03;;;29.50;94.40;;;;;;5034128;28;20528;-76
2023/07/15 11:22:16;;;;;;;3.00;2.40;;;29.50;94.40;;;;;;5033424;28;20469;-77
2023/07/15 11:24:46;;;;;;;2.60;2.27;;;29.50;94.60;;;;;;5033302;28;20533;-76
2023/07/15 11:27:14;;;;;;;5.30;2.40;;;29.40;94.50;;;;;;5031901;28;20451;-76
2023/07/15 11:29:42;;;;;;;2.83;2.10;;;29.40;94.70;;;;;;5033050;28;20541;-76
2023/07/15 11:32:10;;;;;;;4.50;2.30;;;29.30;94.80;;;;;;5033430;28;20513;-77
2023/07/15 11:34:40;;;;;;;14.07;2.93;;;29.30;95.10;;;;;;5033205;28;20467;-76
2023/07/15 11:37:08;;;;;;;2.43;2.20;;;29.20;95.10;;;;;;5033363;28;20450;-76
2023/07/15 11:39:40;;;;;;;2.70;2.13;;;29.10;95.10;;;;;;5033085;28;21021;-77
2023/07/15 11:42:09;;;;;;;3.27;2.40;;;29.10;95.10;;;;;;5033071;28;20926;-76
2023/07/15 11:44:37;;;;;;;2.43;2.10;;;29.00;95.50;;;;;;5034215;28;20521;-75
2023/07/15 11:47:06;;;;;;;2.87;2.30;;;28.90;95.50;;;;;;5033847;28;20441;-76
2023/07/15 11:49:45;;;;;;;2.83;2.30;;;28.90;95.60;;;;;;5033097;28;20461;-75
2023/07/15 11:52:20;;;;;;;2.87;1.70;;;28.90;95.60;;;;;;5033293;28;20458;-76
2023/07/15 11:54:48;;;;;;;5.63;2.30;;;28.90;95.80;;;;;;5033120;28;20423;-76
2023/07/15 11:57:25;;;;;;;2.70;2.43;;;28.90;95.90;;;;;;5032941;28;20443;-76
2023/07/15 11:59:53;;;;;;;2.50;2.30;;;28.90;96.10;;;;;;5031634;28;20484;-75
2023/07/15 12:02:22;;;;;;;3.20;2.50;;;29.00;96.30;;;;;;5033521;28;20905;-75
2023/07/15 12:04:55;;;;;;;6.80;3.17;;;29.00;96.40;;;;;;5032829;28;20502;-76
2023/07/15 12:07:24;;;;;;;5.03;2.27;;;29.10;96.60;;;;;;5032819;28;20952;-76
2023/07/15 12:10:07;;;;;;;3.83;2.53;;;29.20;96.30;;;;;;5032827;28;20474;-76
2023/07/15 12:12:35;;;;;;;2.23;1.97;;;29.20;96.20;;;;;;5033475;28;20505;-75
2023/07/15 12:15:03;;;;;;;2.93;2.20;;;29.20;96.00;;;;;;5033272;28;20435;-76
2023/07/15 12:17:31;;;;;;;2.23;2.00;;;29.20;95.80;;;;;;5033779;28;20438;-75
2023/07/15 12:20:01;;;;;;;2.97;1.90;;;29.30;95.70;;;;;;5036349;28;20458;-75
2023/07/15 12:22:30;;;;;;;4.43;2.20;;;29.30;95.60;;;;;;5036408;28;20502;-76
2023/07/15 12:24:58;;;;;;;3.90;2.60;;;29.40;95.50;;;;;;5036156;28;20848;-76
2023/07/15 12:27:26;;;;;;;5.30;2.60;;;29.40;95.50;;;;;;5036167;28;20446;-75
2023/07/15 12:29:55;;;;;;;2.90;2.20;;;29.40;95.60;;;;;;5036043;28;20455;-76
2023/07/15 12:32:31;;;;;;;2.73;2.33;;;29.40;95.70;;;;;;5036075;28;20481;-76
2023/07/15 12:34:59;;;;;;;2.50;2.23;;;29.30;95.80;;;;;;5036483;28;20439;-75
2023/07/15 12:37:28;;;;;;;3.20;2.27;;;29.10;95.90;;;;;;5036053;28;20447;-75
2023/07/15 12:39:56;;;;;;;4.40;2.90;;;29.00;96.00;;;;;;5035880;28;20478;-76
2023/07/15 12:42:24;;;;;;;2.90;2.57;;;28.90;96.10;;;;;;5036366;28;20441;-75
2023/07/15 12:44:52;;;;;;;3.30;2.57;;;28.80;96.20;;;;;;5036120;28;20521;-75
2023/07/15 12:47:20;;;;;;;2.90;2.70;;;28.70;96.30;;;;;;5036782;28;20435;-80
2023/07/15 12:49:49;;;;;;;4.00;2.17;;;28.60;96.40;;;;;;5038108;28;20558;-76
2023/07/15 12:52:17;;;;;;;8.07;2.10;;;28.50;96.60;;;;;;5035862;28;20566;-76
2023/07/15 12:54:46;;;;;;;2.60;2.00;;;28.40;96.80;;;;;;5036464;28;20839;-78
2023/07/15 12:57:15;;;;;;;10.03;2.43;;;28.30;96.90;;;;;;5035747;28;20814;-78
2023/07/15 12:59:43;;;;;;;1.90;1.60;;;28.30;97.20;;;;;;5036612;28;20470;-79